createdAt,value
2023-01-26T00:00:09.698Z,15.70
2023-01-26T00:02:58.147Z,15.50
2023-01-26T00:05:26.495Z,15.20
2023-01-26T00:07:55.189Z,15.30
2023-01-26T00:10:23.461Z,15.00
2023-01-26T00:12:51.793Z,14.90
2023-01-26T00:15:19.971Z,14.40
2023-01-26T00:17:48.226Z,14.80
2023-01-26T00:20:16.570Z,14.40
2023-01-26T00:22:44.871Z,14.80
2023-01-26T00:25:15.602Z,16.60
2023-01-26T00:27:44.198Z,15.90
2023-01-26T00:30:14.801Z,15.40
2023-01-26T00:32:43.383Z,15.60
2023-01-26T00:35:12.034Z,15.90
2023-01-26T00:37:43.724Z,16.70
2023-01-26T00:40:12.671Z,15.70
2023-01-26T00:42:41.238Z,15.50
2023-01-26T00:45:10.108Z,15.80
2023-01-26T00:47:38.478Z,16.60
2023-01-26T00:50:07.138Z,16.30
2023-01-26T00:52:35.436Z,15.90
2023-01-26T00:55:04.515Z,15.20
2023-01-26T00:57:32.892Z,16.50
2023-01-26T01:00:01.148Z,15.80
2023-01-26T01:02:29.645Z,15.10
2023-01-26T01:04:58.530Z,15.80
2023-01-26T01:07:26.805Z,16.00
2023-01-26T01:09:55.085Z,16.80
2023-01-26T01:12:23.354Z,15.90
2023-01-26T01:14:51.600Z,16.50
2023-01-26T01:17:19.982Z,17.50
2023-01-26T01:19:48.264Z,17.30
2023-01-26T01:22:16.484Z,16.50
2023-01-26T01:24:44.863Z,14.90
2023-01-26T01:27:13.231Z,16.90
2023-01-26T01:29:41.454Z,16.10
2023-01-26T01:32:09.719Z,16.30
2023-01-26T01:34:37.950Z,16.40
2023-01-26T01:37:06.115Z,17.60
2023-01-26T01:39:34.424Z,17.10
2023-01-26T01:42:02.643Z,16.80
2023-01-26T01:44:30.867Z,15.80
2023-01-26T01:47:03.129Z,16.70
2023-01-26T01:49:41.162Z,17.00
2023-01-26T01:52:26.392Z,16.60
2023-01-26T01:55:02.244Z,15.80
2023-01-26T01:57:45.317Z,16.50
2023-01-26T02:00:20.335Z,15.80
2023-01-26T02:03:13.710Z,14.80
2023-01-26T02:06:03.288Z,15.30
2023-01-26T02:08:38.556Z,15.30
2023-01-26T02:11:11.925Z,15.80
2023-01-26T02:13:42.547Z,17.10
2023-01-26T02:16:11.278Z,16.50
2023-01-26T02:18:39.554Z,15.00
2023-01-26T02:21:11.547Z,15.10
2023-01-26T02:23:48.839Z,15.10
2023-01-26T02:26:23.301Z,15.90
2023-01-26T02:28:51.702Z,15.00
2023-01-26T02:31:22.289Z,15.30
2023-01-26T02:33:50.829Z,15.40
2023-01-26T02:36:21.631Z,14.80
2023-01-26T02:39:08.406Z,16.20
2023-01-26T02:41:55.333Z,14.70
2023-01-26T02:44:24.647Z,15.40
2023-01-26T02:46:53.881Z,14.80
2023-01-26T02:49:40.860Z,13.90
2023-01-26T02:52:09.383Z,15.70
2023-01-26T02:54:56.500Z,14.70
2023-01-26T02:57:24.842Z,16.10
2023-01-26T02:59:56.121Z,14.90
2023-01-26T03:02:24.617Z,16.40
2023-01-26T03:04:53.440Z,15.00
2023-01-26T03:07:21.636Z,15.10
2023-01-26T03:09:49.998Z,15.60
2023-01-26T03:12:18.881Z,16.40
2023-01-26T03:15:07.016Z,16.80
2023-01-26T03:17:35.401Z,15.80
2023-01-26T03:20:23.905Z,15.70
2023-01-26T03:23:15.468Z,15.80
2023-01-26T03:26:02.533Z,16.10
2023-01-26T03:28:30.907Z,15.70
2023-01-26T03:30:59.281Z,15.40
2023-01-26T03:33:27.521Z,16.00
2023-01-26T03:35:55.895Z,15.70
2023-01-26T03:38:24.157Z,14.50
2023-01-26T03:41:11.091Z,15.30
2023-01-26T03:43:58.362Z,15.00
2023-01-26T03:46:45.506Z,14.40
2023-01-26T03:49:32.919Z,15.40
2023-01-26T03:52:19.706Z,15.00
2023-01-26T03:55:06.903Z,14.40
2023-01-26T03:57:35.142Z,15.50
2023-01-26T04:00:04.799Z,14.60
2023-01-26T04:02:52.186Z,14.10
2023-01-26T04:05:39.179Z,14.10
2023-01-26T04:08:27.420Z,14.50
2023-01-26T04:10:56.830Z,13.00
2023-01-26T04:14:03.869Z,14.30
2023-01-26T04:16:50.981Z,13.60
2023-01-26T04:19:38.040Z,12.80
2023-01-26T04:22:06.375Z,14.60
2023-01-26T04:24:34.592Z,13.80
2023-01-26T04:27:02.763Z,13.90
2023-01-26T04:29:31.104Z,13.10
2023-01-26T04:31:59.300Z,13.70
2023-01-26T04:34:27.503Z,12.90
2023-01-26T04:36:55.822Z,13.30
2023-01-26T04:39:24.016Z,13.90
2023-01-26T04:41:52.290Z,14.10
2023-01-26T04:44:20.612Z,13.00
2023-01-26T04:46:49.107Z,14.40
2023-01-26T04:49:17.410Z,13.60
2023-01-26T04:51:45.793Z,13.30
2023-01-26T04:54:13.981Z,13.80
2023-01-26T04:56:42.334Z,12.80
2023-01-26T04:59:11.418Z,13.30
2023-01-26T05:01:39.633Z,12.60
2023-01-26T05:04:08.544Z,13.10
2023-01-26T05:06:37.014Z,13.80
2023-01-26T05:09:05.697Z,12.80
2023-01-26T05:11:34.271Z,12.80
2023-01-26T05:14:02.568Z,12.30
2023-01-26T05:16:30.837Z,11.10
2023-01-26T05:18:59.047Z,12.10
2023-01-26T05:21:34.982Z,13.20
2023-01-26T05:24:03.228Z,12.40
2023-01-26T05:26:31.707Z,12.10
2023-01-26T05:28:59.952Z,12.10
2023-01-26T05:31:28.293Z,11.70
2023-01-26T05:33:56.507Z,12.30
2023-01-26T05:36:24.779Z,11.40
2023-01-26T05:38:52.945Z,11.10
2023-01-26T05:41:21.174Z,11.80
2023-01-26T05:43:49.597Z,11.30
2023-01-26T05:46:17.785Z,11.70
2023-01-26T05:48:46.025Z,11.60
2023-01-26T05:51:14.335Z,11.90
2023-01-26T05:53:42.523Z,12.00
2023-01-26T05:56:10.710Z,12.70
2023-01-26T05:58:39.067Z,13.80
2023-01-26T06:01:08.866Z,11.20
2023-01-26T06:03:37.063Z,12.20
2023-01-26T06:06:05.495Z,13.10
2023-01-26T06:08:33.729Z,12.60
2023-01-26T06:11:01.965Z,12.70
2023-01-26T06:13:30.192Z,12.50
2023-01-26T06:16:01.889Z,12.70
2023-01-26T06:18:30.168Z,13.20
2023-01-26T06:21:01.620Z,13.00
2023-01-26T06:23:29.995Z,13.20
2023-01-26T06:26:02.621Z,11.60
2023-01-26T06:28:31.103Z,12.70
2023-01-26T06:31:01.007Z,12.50
2023-01-26T06:36:03.116Z,12.70
2023-01-26T06:38:31.794Z,11.90
2023-01-26T06:41:03.239Z,12.60
2023-01-26T06:43:35.786Z,13.20
2023-01-26T06:46:06.316Z,11.70
2023-01-26T06:48:35.545Z,12.00
2023-01-26T06:51:15.795Z,12.40
2023-01-26T06:53:48.772Z,11.90
2023-01-26T06:56:16.954Z,11.80
2023-01-26T06:58:45.201Z,11.50
2023-01-26T07:01:36.799Z,12.10
2023-01-26T07:04:05.423Z,11.50
2023-01-26T07:06:33.927Z,11.30
2023-01-26T07:09:02.200Z,11.50
2023-01-26T07:11:32.610Z,12.40
2023-01-26T07:14:00.973Z,12.00
2023-01-26T07:16:29.665Z,11.70
2023-01-26T07:18:58.859Z,11.80
2023-01-26T07:21:27.355Z,11.70
2023-01-26T07:23:56.026Z,10.80
2023-01-26T07:26:24.508Z,10.10
2023-01-26T07:28:52.727Z,10.70
2023-01-26T07:31:21.060Z,12.30
2023-01-26T07:33:49.435Z,11.20
2023-01-26T07:36:17.627Z,11.30
2023-01-26T07:38:46.374Z,10.70
2023-01-26T07:41:14.708Z,11.40
2023-01-26T07:43:42.902Z,10.70
2023-01-26T07:46:12.480Z,10.70
2023-01-26T07:48:41.923Z,10.80
2023-01-26T07:51:11.408Z,10.70
2023-01-26T07:53:40.104Z,10.30
2023-01-26T07:56:11.111Z,9.80
2023-01-26T07:58:40.237Z,10.30
2023-01-26T08:01:14.180Z,10.50
2023-01-26T08:03:42.612Z,10.40
2023-01-26T08:06:13.554Z,10.50
2023-01-26T08:08:46.108Z,10.40
2023-01-26T08:11:14.596Z,9.90
2023-01-26T08:13:42.974Z,11.20
2023-01-26T08:16:12.921Z,10.10
2023-01-26T08:18:43.740Z,11.00
2023-01-26T08:21:14.097Z,10.40
2023-01-26T08:23:42.727Z,10.50
2023-01-26T08:26:13.469Z,10.30
2023-01-26T08:28:41.879Z,11.10
2023-01-26T08:31:13.153Z,10.20
2023-01-26T08:33:42.973Z,9.60
2023-01-26T08:36:13.827Z,10.60
2023-01-26T08:38:42.810Z,10.20
2023-01-26T08:41:11.575Z,10.50
2023-01-26T08:43:39.981Z,10.10
2023-01-26T08:46:09.925Z,9.70
2023-01-26T08:51:08.868Z,9.70
2023-01-26T08:56:09.193Z,10.40
2023-01-26T08:58:38.052Z,10.70
2023-01-26T09:01:12.367Z,10.50
2023-01-26T09:03:41.629Z,10.80
2023-01-26T09:06:11.855Z,10.30
2023-01-26T09:08:40.426Z,10.50
2023-01-26T09:11:09.687Z,10.90
2023-01-26T09:13:39.235Z,11.30
2023-01-26T09:16:12.774Z,9.80
2023-01-26T09:18:40.992Z,9.90
2023-01-26T09:21:10.056Z,10.10
2023-01-26T09:23:38.968Z,10.50
2023-01-26T09:26:07.303Z,10.10
2023-01-26T09:28:35.563Z,10.70
2023-01-26T09:31:05.968Z,10.70
2023-01-26T09:33:35.075Z,11.20
2023-01-26T09:36:09.031Z,10.40
2023-01-26T09:38:39.009Z,12.00
2023-01-26T09:41:31.676Z,12.40
2023-01-26T09:44:17.243Z,11.90
2023-01-26T09:47:07.982Z,12.10
2023-01-26T09:49:56.742Z,11.20
2023-01-26T09:52:34.050Z,12.30
2023-01-26T09:55:15.522Z,12.70
2023-01-26T09:58:08.129Z,12.30
2023-01-26T10:00:53.119Z,11.60
2023-01-26T10:03:31.488Z,11.90
2023-01-26T10:06:21.851Z,12.20
2023-01-26T10:08:50.568Z,11.70
2023-01-26T10:11:43.511Z,11.30
2023-01-26T10:14:47.443Z,10.70
2023-01-26T10:17:22.281Z,10.70
2023-01-26T10:20:02.938Z,10.90
2023-01-26T10:22:53.213Z,12.40
2023-01-26T10:25:36.012Z,13.00
2023-01-26T10:28:19.243Z,11.80
2023-01-26T10:30:49.153Z,13.40
2023-01-26T10:33:28.109Z,11.30
2023-01-26T10:35:56.908Z,12.80
2023-01-26T10:38:38.117Z,12.10
2023-01-26T10:41:17.245Z,13.20
2023-01-26T10:44:00.252Z,13.50
2023-01-26T10:46:38.379Z,13.90
2023-01-26T10:49:09.251Z,15.90
2023-01-26T10:51:40.100Z,15.80
2023-01-26T10:54:28.812Z,15.60
2023-01-26T10:57:00.388Z,13.00
2023-01-26T10:59:51.074Z,13.10
2023-01-26T11:02:31.882Z,14.30
2023-01-26T11:05:09.498Z,14.80
2023-01-26T11:07:43.092Z,15.10
2023-01-26T11:10:27.363Z,14.10
2023-01-26T11:13:18.409Z,15.30
2023-01-26T11:16:01.784Z,14.20
2023-01-26T11:18:33.277Z,14.40
2023-01-26T11:21:17.489Z,14.90
2023-01-26T11:24:24.377Z,31.60
2023-01-26T11:27:19.965Z,43.00
2023-01-26T11:29:57.112Z,17.80
2023-01-26T11:32:47.212Z,31.90
2023-01-26T11:35:18.514Z,22.50
2023-01-26T11:37:54.780Z,29.50
2023-01-26T11:40:35.319Z,25.10
2023-01-26T11:43:13.808Z,24.10
2023-01-26T11:46:04.363Z,14.70
2023-01-26T11:48:42.133Z,12.90
2023-01-26T11:51:32.303Z,13.20
2023-01-26T11:54:00.534Z,14.20
2023-01-26T11:56:49.150Z,14.80
2023-01-26T11:59:36.656Z,11.60
2023-01-26T12:02:34.808Z,12.80
2023-01-26T12:05:12.387Z,13.00
2023-01-26T12:08:07.219Z,11.80
2023-01-26T12:10:42.144Z,12.30
2023-01-26T12:13:20.562Z,13.00
2023-01-26T12:15:58.395Z,12.30
2023-01-26T12:18:55.668Z,12.20
2023-01-26T12:21:36.586Z,12.10
2023-01-26T12:24:08.189Z,14.00
2023-01-26T12:26:47.457Z,13.80
2023-01-26T12:29:35.418Z,12.50
2023-01-26T12:32:10.739Z,13.50
2023-01-26T12:34:39.403Z,12.20
2023-01-26T12:37:32.516Z,11.10
2023-01-26T12:40:16.315Z,13.60
2023-01-26T12:43:15.704Z,12.40
2023-01-26T12:45:48.323Z,13.20
2023-01-26T12:48:32.351Z,16.20
2023-01-26T12:51:11.526Z,15.30
2023-01-26T12:53:55.954Z,14.70
2023-01-26T12:56:35.347Z,14.40
2023-01-26T13:02:17.105Z,14.50
2023-01-26T13:04:48.987Z,14.00
2023-01-26T13:07:39.794Z,15.70
2023-01-26T13:10:19.599Z,14.60
2023-01-26T13:13:21.656Z,14.70
2023-01-26T13:16:16.212Z,15.90
2023-01-26T13:18:53.530Z,14.70
2023-01-26T13:21:42.407Z,14.40
2023-01-26T13:24:16.840Z,14.90
2023-01-26T13:26:47.449Z,13.40
2023-01-26T13:29:28.221Z,16.00
2023-01-26T13:31:58.819Z,14.80
2023-01-26T13:34:41.682Z,14.70
2023-01-26T13:37:19.377Z,14.60
2023-01-26T13:39:54.556Z,13.60
2023-01-26T13:42:33.238Z,12.90
2023-01-26T13:45:06.643Z,16.40
2023-01-26T13:47:41.185Z,17.00
2023-01-26T13:50:32.985Z,15.60
2023-01-26T13:53:01.318Z,16.60
2023-01-26T13:55:33.864Z,15.80
2023-01-26T13:58:17.228Z,15.20
2023-01-26T14:01:07.292Z,13.60
2023-01-26T14:03:35.778Z,12.30
2023-01-26T14:06:10.220Z,12.50
2023-01-26T14:08:39.851Z,11.60
2023-01-26T14:11:19.126Z,11.40
2023-01-26T14:13:52.851Z,12.70
2023-01-26T14:16:26.407Z,12.00
2023-01-26T14:19:16.842Z,15.10
2023-01-26T14:21:50.357Z,13.80
2023-01-26T14:24:41.418Z,12.50
2023-01-26T14:27:37.163Z,11.40
2023-01-26T14:30:20.780Z,12.20
2023-01-26T14:32:49.817Z,12.30
2023-01-26T14:35:23.646Z,11.00
2023-01-26T14:38:28.346Z,11.60
2023-01-26T14:41:00.377Z,11.50
2023-01-26T14:43:29.953Z,11.70
2023-01-26T14:46:09.113Z,11.00
2023-01-26T14:48:50.371Z,11.80
2023-01-26T14:51:24.620Z,12.00
2023-01-26T14:54:01.104Z,12.60
2023-01-26T14:56:39.491Z,12.30
2023-01-26T14:59:15.117Z,13.30
2023-01-26T15:01:43.521Z,13.20
2023-01-26T15:04:32.109Z,11.80
2023-01-26T15:07:32.527Z,11.00
2023-01-26T15:10:02.211Z,10.80
2023-01-26T15:12:35.468Z,11.20
2023-01-26T15:15:13.485Z,9.70
2023-01-26T15:17:43.353Z,11.10
2023-01-26T15:20:14.683Z,10.40
2023-01-26T15:22:49.592Z,10.40
2023-01-26T15:25:29.701Z,10.90
2023-01-26T15:30:34.209Z,9.90
2023-01-26T15:33:02.661Z,10.50
2023-01-26T15:35:33.620Z,10.80
2023-01-26T15:38:09.793Z,10.40
2023-01-26T15:40:39.451Z,10.90
2023-01-26T15:43:14.708Z,11.20
2023-01-26T15:45:58.036Z,10.80
2023-01-26T15:48:27.042Z,11.20
2023-01-26T15:50:55.279Z,11.70
2023-01-26T15:53:23.983Z,12.20
2023-01-26T15:55:57.062Z,11.50
2023-01-26T15:58:26.143Z,15.20
2023-01-26T16:00:54.704Z,16.50
2023-01-26T16:03:23.025Z,16.10
2023-01-26T16:05:51.315Z,13.00
2023-01-26T16:08:20.609Z,12.10
2023-01-26T16:10:49.001Z,12.80
2023-01-26T16:13:19.390Z,14.20
2023-01-26T16:15:50.478Z,14.00
2023-01-26T16:18:19.548Z,12.00
2023-01-26T16:20:49.867Z,11.90
2023-01-26T16:23:18.194Z,11.60
2023-01-26T16:25:47.404Z,11.90
2023-01-26T16:28:16.116Z,13.20
2023-01-26T16:30:46.100Z,14.60
2023-01-26T16:38:13.477Z,11.40
2023-01-26T16:40:44.381Z,12.90
2023-01-26T16:43:23.775Z,14.50
2023-01-26T16:45:53.370Z,13.20
2023-01-26T16:48:23.075Z,12.80
2023-01-26T16:50:53.350Z,12.70
2023-01-26T16:53:24.354Z,12.60
2023-01-26T16:55:53.259Z,13.30
2023-01-26T16:58:22.291Z,12.80
2023-01-26T17:00:50.514Z,13.90
2023-01-26T17:03:18.785Z,13.80
2023-01-26T17:05:47.536Z,12.70
2023-01-26T17:08:15.774Z,12.90
2023-01-26T17:11:00.614Z,15.00
2023-01-26T17:13:31.613Z,14.00
2023-01-26T17:15:59.972Z,13.50
2023-01-26T17:18:28.322Z,12.60
2023-01-26T17:21:03.095Z,12.60
2023-01-26T17:23:31.589Z,13.30
2023-01-26T17:26:00.868Z,12.80
2023-01-26T17:28:29.653Z,12.00
2023-01-26T17:31:01.004Z,12.60
2023-01-26T17:33:30.226Z,12.90
2023-01-26T17:36:03.361Z,13.30
2023-01-26T17:38:31.706Z,15.10
2023-01-26T17:41:01.169Z,17.50
2023-01-26T17:43:30.941Z,29.00
2023-01-26T17:46:20.233Z,22.20
2023-01-26T17:48:49.721Z,17.20
2023-01-26T17:51:20.536Z,20.90
2023-01-26T17:53:50.033Z,22.30
2023-01-26T17:56:20.528Z,21.50
2023-01-26T17:58:54.619Z,24.40
2023-01-26T18:01:24.859Z,22.70
2023-01-26T18:03:56.160Z,24.20
2023-01-26T18:06:30.942Z,23.40
2023-01-26T18:09:28.043Z,20.30
2023-01-26T18:11:56.345Z,21.30
2023-01-26T18:14:24.850Z,19.80
2023-01-26T18:16:53.180Z,18.30
2023-01-26T18:19:21.660Z,18.00
2023-01-26T18:21:51.708Z,18.30
2023-01-26T18:24:20.040Z,17.50
2023-01-26T18:26:49.599Z,17.70
2023-01-26T18:29:18.105Z,19.10
2023-01-26T18:31:48.227Z,18.50
2023-01-26T18:34:16.630Z,19.00
2023-01-26T18:36:44.902Z,19.50
2023-01-26T18:39:14.892Z,18.30
2023-01-26T18:44:14.790Z,18.10
2023-01-26T18:46:45.669Z,17.50
2023-01-26T18:49:13.945Z,14.60
2023-01-26T18:51:48.175Z,13.50
2023-01-26T18:54:18.076Z,14.00
2023-01-26T18:56:47.606Z,15.70
2023-01-26T18:59:18.002Z,16.30
2023-01-26T19:01:46.446Z,16.10
2023-01-26T19:04:17.882Z,15.70
2023-01-26T19:06:54.034Z,16.40
2023-01-26T19:09:22.972Z,15.80
2023-01-26T19:11:54.999Z,16.20
2023-01-26T19:14:23.427Z,15.30
2023-01-26T19:16:51.910Z,15.20
2023-01-26T19:19:20.327Z,14.80
2023-01-26T19:21:48.807Z,14.90
2023-01-26T19:24:17.164Z,14.00
2023-01-26T19:26:45.545Z,13.60
2023-01-26T19:29:13.861Z,13.50
2023-01-26T19:31:42.197Z,11.80
2023-01-26T19:34:13.926Z,12.00
2023-01-26T19:36:42.577Z,12.60
2023-01-26T19:39:14.123Z,12.60
2023-01-26T19:41:44.493Z,12.00
2023-01-26T19:44:12.934Z,12.50
2023-01-26T19:46:41.336Z,13.60
2023-01-26T19:49:12.102Z,14.10
2023-01-26T19:51:40.416Z,13.50
2023-01-26T19:54:09.173Z,15.50
2023-01-26T19:56:38.156Z,15.80
2023-01-26T19:59:10.641Z,14.80
2023-01-26T20:01:39.300Z,15.10
2023-01-26T20:04:11.620Z,15.00
2023-01-26T20:06:40.914Z,13.50
2023-01-26T20:09:11.561Z,15.00
2023-01-26T20:11:39.894Z,14.90
2023-01-26T20:14:11.163Z,15.40
2023-01-26T20:16:40.199Z,15.70
2023-01-26T20:19:08.721Z,16.70
2023-01-26T20:21:39.031Z,17.70
2023-01-26T20:24:13.059Z,14.90
2023-01-26T20:26:44.521Z,14.10
2023-01-26T20:29:19.149Z,14.10
2023-01-26T20:31:48.630Z,12.50
2023-01-26T20:34:17.627Z,12.20
2023-01-26T20:36:46.173Z,13.10
2023-01-26T20:39:24.686Z,13.70
2023-01-26T20:41:55.182Z,16.10
2023-01-26T20:44:23.462Z,15.90
2023-01-26T20:46:51.685Z,17.30
2023-01-26T20:49:23.175Z,18.60
2023-01-26T20:51:51.658Z,18.70
2023-01-26T20:54:20.521Z,19.70
2023-01-26T20:56:51.560Z,19.50
2023-01-26T20:59:23.213Z,19.00
2023-01-26T21:01:52.842Z,17.00
2023-01-26T21:04:21.461Z,15.90
2023-01-26T21:06:49.955Z,14.60
2023-01-26T21:09:18.894Z,13.90
2023-01-26T21:11:47.205Z,12.90
2023-01-26T21:14:15.994Z,12.60
2023-01-26T21:16:44.331Z,11.80
2023-01-26T21:19:12.695Z,9.90
2023-01-26T21:21:41.831Z,10.80
2023-01-26T21:24:13.782Z,10.00
2023-01-26T21:26:43.086Z,10.10
2023-01-26T21:29:15.032Z,10.30
2023-01-26T21:31:45.715Z,9.80
2023-01-26T21:34:14.111Z,9.50
2023-01-26T21:36:42.483Z,10.50
2023-01-26T21:39:13.504Z,10.30
2023-01-26T21:41:57.354Z,11.20
2023-01-26T21:44:31.446Z,11.10
2023-01-26T21:47:03.203Z,11.90
2023-01-26T21:49:31.647Z,11.20
2023-01-26T21:52:18.767Z,12.10
2023-01-26T21:54:47.181Z,11.80
2023-01-26T21:57:34.690Z,12.50
2023-01-26T22:00:03.512Z,13.40
2023-01-26T22:02:31.851Z,14.00
2023-01-26T22:05:00.227Z,13.70
2023-01-26T22:07:54.353Z,14.60
2023-01-26T22:10:22.733Z,15.30
2023-01-26T22:12:53.571Z,14.60
2023-01-26T22:15:21.841Z,14.20
2023-01-26T22:17:50.285Z,15.30
2023-01-26T22:20:22.558Z,14.00
2023-01-26T22:22:54.149Z,12.40
2023-01-26T22:25:22.492Z,11.90
2023-01-26T22:27:53.583Z,10.60
2023-01-26T22:30:22.244Z,9.70
2023-01-26T22:32:53.644Z,9.80
2023-01-26T22:35:22.044Z,9.30
2023-01-26T22:37:50.946Z,9.10
2023-01-26T22:40:19.691Z,9.20
2023-01-26T22:42:47.932Z,9.00
2023-01-26T22:45:16.316Z,8.30
2023-01-26T22:47:46.925Z,8.70
2023-01-26T22:53:35.352Z,8.50
2023-01-26T22:56:11.206Z,8.20
2023-01-26T22:58:56.585Z,8.00
2023-01-26T23:01:31.719Z,8.10
2023-01-26T23:04:02.856Z,8.30
2023-01-26T23:06:31.495Z,8.10
2023-01-26T23:09:07.671Z,8.40
2023-01-26T23:11:46.936Z,7.40
2023-01-26T23:14:19.183Z,8.50
2023-01-26T23:16:55.788Z,7.90
2023-01-26T23:19:27.972Z,7.90
2023-01-26T23:22:08.381Z,7.80
2023-01-26T23:25:03.311Z,7.80
2023-01-26T23:27:35.031Z,7.20
2023-01-26T23:30:07.202Z,6.70
2023-01-26T23:32:47.937Z,6.40
2023-01-26T23:35:16.802Z,6.30
2023-01-26T23:38:25.592Z,5.40
2023-01-26T23:41:24.760Z,5.90
2023-01-26T23:44:04.495Z,5.30
2023-01-26T23:49:53.472Z,4.60
2023-01-26T23:57:47.811Z,4.90
